Max, Minnesota
Current Conditions -  °F | °C
As of 5:53 AM on Thursday 23 Oct 2014 (Local Time) from KFOZ Reporting Station
Haze Haze  
Wind Chill: 50°   Ceiling: 200
Heat Index: 50°   Visibility: 3mi
Dew Point: 48°   Wind: 7mph
Humidity: 94%   Direction: 190°S
Pressure: 29.9"   Gusts: NA
Location:  47.61°N, 94.07°W
Report Text: KFOZ 231053Z AUTO 19006KT 3SM BR OVC002 10/09 A2990 RMK AO2
Loading
Personal Weather Stations






























Interactive Weather Map
Tropical Storm Tracking
New forecast layout! Learn more

10-Day Weather Forecast

Advertisements
Track Severe Weather on mobile